createdAt,value
2018-11-23T00:00:27.435Z,34.10
2018-11-23T00:01:27.454Z,33.90
2018-11-23T00:02:27.415Z,33.00
2018-11-23T00:03:27.430Z,34.80
2018-11-23T00:04:27.406Z,33.80
2018-11-23T00:05:27.389Z,32.50
2018-11-23T00:06:27.404Z,31.90
2018-11-23T00:07:27.367Z,33.50
2018-11-23T00:08:27.347Z,32.10
2018-11-23T00:09:27.329Z,33.90
2018-11-23T00:10:27.327Z,34.60
2018-11-23T00:11:27.332Z,34.50
2018-11-23T00:12:27.311Z,32.60
2018-11-23T00:13:27.301Z,32.80
2018-11-23T00:14:27.291Z,35.10
2018-11-23T00:15:27.293Z,32.60
2018-11-23T00:16:27.283Z,32.80
2018-11-23T00:17:27.264Z,32.90
2018-11-23T00:18:27.246Z,34.60
2018-11-23T00:19:27.236Z,35.00
2018-11-23T00:20:27.220Z,32.60
2018-11-23T00:21:27.231Z,33.90
2018-11-23T00:22:27.194Z,33.10
2018-11-23T00:23:27.194Z,34.20
2018-11-23T00:24:27.182Z,32.20
2018-11-23T00:25:27.168Z,33.20
2018-11-23T00:26:27.186Z,30.10
2018-11-23T00:27:27.144Z,33.70
2018-11-23T00:28:27.144Z,31.90
2018-11-23T00:29:27.132Z,31.50
2018-11-23T00:30:27.118Z,33.40
2018-11-23T00:31:27.128Z,33.70
2018-11-23T00:32:27.088Z,33.60
2018-11-23T00:33:27.074Z,34.10
2018-11-23T00:34:27.068Z,35.10
2018-11-23T00:35:27.082Z,32.70
2018-11-23T00:36:27.077Z,32.60
2018-11-23T00:37:27.047Z,32.40
2018-11-23T00:38:27.033Z,32.40
2018-11-23T00:39:27.008Z,33.40
2018-11-23T00:40:27.008Z,33.70
2018-11-23T00:41:26.998Z,34.50
2018-11-23T00:42:26.993Z,35.20
2018-11-23T00:43:26.970Z,34.80
2018-11-23T00:44:26.955Z,33.50
2018-11-23T00:45:26.954Z,34.60
2018-11-23T00:46:26.953Z,35.80
2018-11-23T00:47:26.964Z,36.70
2018-11-23T00:48:26.926Z,34.80
2018-11-23T00:49:26.917Z,36.10
2018-11-23T00:50:26.924Z,38.50
2018-11-23T00:51:26.902Z,37.30
2018-11-23T00:52:26.893Z,37.60
2018-11-23T00:53:26.878Z,37.90
2018-11-23T00:54:26.856Z,36.90
2018-11-23T00:55:26.849Z,38.60
2018-11-23T00:56:26.835Z,35.70
2018-11-23T00:57:26.857Z,36.70
2018-11-23T00:58:26.831Z,36.60
2018-11-23T00:59:26.808Z,35.50
2018-11-23T01:00:26.821Z,35.40
2018-11-23T01:01:26.784Z,36.90
2018-11-23T01:02:26.801Z,38.20
2018-11-23T01:03:26.766Z,38.60
2018-11-23T01:05:36.206Z,36.60
2018-11-23T01:06:36.988Z,37.40
2018-11-23T01:07:37.003Z,35.50
2018-11-23T01:08:36.965Z,37.30
2018-11-23T01:09:36.947Z,38.80
2018-11-23T01:10:36.950Z,39.70
2018-11-23T01:11:36.934Z,38.30
2018-11-23T01:12:36.929Z,37.40
2018-11-23T01:13:36.917Z,37.20
2018-11-23T01:14:36.900Z,36.30
2018-11-23T01:15:36.888Z,37.70
2018-11-23T01:16:36.875Z,38.40
2018-11-23T01:17:36.880Z,40.00
2018-11-23T01:18:36.862Z,41.70
2018-11-23T01:19:36.850Z,37.50
2018-11-23T01:20:36.826Z,45.00
2018-11-23T01:21:36.836Z,43.60
2018-11-23T01:22:36.836Z,43.80
2018-11-23T01:23:36.801Z,39.20
2018-11-23T01:24:36.790Z,42.20
2018-11-23T01:25:36.769Z,42.00
2018-11-23T01:26:36.767Z,45.40
2018-11-23T01:27:36.780Z,45.20
2018-11-23T01:28:36.753Z,45.00
2018-11-23T01:29:36.742Z,45.60
2018-11-23T01:30:36.718Z,44.10
2018-11-23T01:31:36.716Z,43.50
2018-11-23T01:32:36.724Z,39.30
2018-11-23T01:33:36.699Z,42.30
2018-11-23T01:34:36.668Z,41.10
2018-11-23T01:35:36.670Z,41.70
2018-11-23T01:36:36.651Z,42.60
2018-11-23T01:37:36.678Z,42.70
2018-11-23T01:38:36.644Z,39.20
2018-11-23T01:39:36.627Z,42.20
2018-11-23T01:40:36.602Z,40.90
2018-11-23T01:41:36.657Z,38.80
2018-11-23T01:42:36.618Z,40.80
2018-11-23T01:43:36.587Z,40.40
2018-11-23T01:44:36.566Z,42.50
2018-11-23T01:45:37.197Z,39.80
2018-11-23T01:46:36.544Z,42.20
2018-11-23T01:47:36.549Z,40.40
2018-11-23T01:48:36.528Z,40.20
2018-11-23T01:49:36.519Z,40.90
2018-11-23T01:50:36.514Z,41.30
2018-11-23T01:51:36.490Z,42.30
2018-11-23T01:52:36.507Z,39.80
2018-11-23T01:53:36.474Z,41.40
2018-11-23T01:54:36.464Z,40.50
2018-11-23T01:55:36.453Z,41.50
2018-11-23T01:56:36.441Z,41.60
2018-11-23T01:57:36.456Z,40.90
2018-11-23T01:58:36.416Z,40.80
2018-11-23T01:59:36.407Z,42.70
2018-11-23T02:00:36.394Z,41.10
2018-11-23T02:01:36.384Z,44.00
2018-11-23T02:02:36.387Z,43.60
2018-11-23T02:03:36.364Z,41.90
2018-11-23T02:04:36.354Z,44.00
2018-11-23T02:05:36.334Z,42.00
2018-11-23T02:06:36.333Z,41.10
2018-11-23T02:07:36.333Z,40.70
2018-11-23T02:08:36.704Z,41.30
2018-11-23T02:09:36.310Z,41.10
2018-11-23T02:10:36.283Z,40.40
2018-11-23T02:11:36.276Z,41.80
2018-11-23T02:12:36.296Z,43.90
2018-11-23T02:13:36.257Z,41.00
2018-11-23T02:14:36.235Z,45.30
2018-11-23T02:15:36.224Z,46.10
2018-11-23T02:16:36.225Z,44.40
2018-11-23T02:17:36.223Z,46.90
2018-11-23T02:18:36.208Z,45.50
2018-11-23T02:19:36.186Z,44.80
2018-11-23T02:20:36.176Z,43.60
2018-11-23T02:21:36.202Z,43.70
2018-11-23T02:22:36.177Z,44.70
2018-11-23T02:23:36.147Z,46.50
2018-11-23T02:24:36.131Z,43.80
2018-11-23T02:25:36.112Z,42.00
2018-11-23T02:26:36.109Z,41.40
2018-11-23T02:27:36.119Z,44.60
2018-11-23T02:28:36.090Z,43.50
2018-11-23T02:29:36.071Z,43.70
2018-11-23T02:30:36.061Z,42.20
2018-11-23T02:31:36.047Z,45.20
2018-11-23T02:32:36.061Z,45.20
2018-11-23T02:33:36.052Z,45.20
2018-11-23T02:34:36.020Z,44.30
2018-11-23T02:35:36.015Z,43.50
2018-11-23T02:36:35.997Z,45.80
2018-11-23T02:37:35.987Z,43.90
2018-11-23T02:38:35.992Z,43.60
2018-11-23T02:39:35.971Z,45.00
2018-11-23T02:40:35.967Z,48.20
2018-11-23T02:41:35.951Z,47.40
2018-11-23T02:42:35.929Z,45.10
2018-11-23T02:43:35.943Z,45.60
2018-11-23T02:44:35.912Z,47.10
2018-11-23T02:45:35.902Z,44.80
2018-11-23T02:46:35.888Z,45.20
2018-11-23T02:47:35.871Z,45.30
2018-11-23T02:48:35.893Z,45.30
2018-11-23T02:49:35.857Z,48.40
2018-11-23T02:50:35.857Z,43.00
2018-11-23T02:51:35.822Z,44.00
2018-11-23T02:52:35.820Z,45.90
2018-11-23T02:53:35.824Z,45.40
2018-11-23T02:54:35.794Z,50.10
2018-11-23T02:55:35.784Z,51.20
2018-11-23T02:56:35.772Z,52.60
2018-11-23T02:57:35.761Z,49.50
2018-11-23T02:58:35.772Z,54.50
2018-11-23T02:59:35.746Z,52.60
2018-11-23T03:00:35.723Z,53.40
2018-11-23T03:01:35.713Z,51.60
2018-11-23T03:02:35.711Z,52.50
2018-11-23T03:03:35.723Z,55.40
2018-11-23T03:04:35.688Z,53.00
2018-11-23T03:06:44.881Z,52.10
2018-11-23T03:07:45.854Z,54.70
2018-11-23T03:08:45.872Z,50.80
2018-11-23T03:09:45.830Z,53.30
2018-11-23T03:10:45.836Z,50.80
2018-11-23T03:11:45.812Z,52.80
2018-11-23T03:12:45.786Z,52.70
2018-11-23T03:13:45.796Z,51.60
2018-11-23T03:14:45.827Z,52.10
2018-11-23T03:15:45.752Z,48.50
2018-11-23T03:16:45.745Z,49.20
2018-11-23T03:17:45.742Z,49.00
2018-11-23T03:18:45.758Z,48.20
2018-11-23T03:19:45.730Z,50.70
2018-11-23T03:20:45.715Z,48.70
2018-11-23T03:21:45.710Z,51.30
2018-11-23T03:22:45.687Z,49.10
2018-11-23T03:23:45.688Z,50.20
2018-11-23T03:24:45.673Z,47.80
2018-11-23T03:25:45.641Z,49.40
2018-11-23T03:26:45.641Z,52.80
2018-11-23T03:27:45.630Z,47.30
2018-11-23T03:28:45.638Z,45.90
2018-11-23T03:29:45.600Z,51.80
2018-11-23T03:30:45.617Z,52.90
2018-11-23T03:31:45.586Z,54.80
2018-11-23T03:32:45.569Z,58.20
2018-11-23T03:33:45.573Z,55.40
2018-11-23T03:34:45.545Z,55.20
2018-11-23T03:35:45.528Z,56.00
2018-11-23T03:36:45.520Z,58.00
2018-11-23T03:37:45.505Z,59.80
2018-11-23T03:38:45.532Z,58.70
2018-11-23T03:39:45.496Z,60.50
2018-11-23T03:40:45.477Z,59.80
2018-11-23T03:41:45.470Z,59.70
2018-11-23T03:42:45.453Z,57.70
2018-11-23T03:43:45.462Z,55.70
2018-11-23T03:44:45.442Z,56.10
2018-11-23T03:45:45.418Z,55.10
2018-11-23T03:46:45.413Z,56.60
2018-11-23T03:47:45.398Z,53.10
2018-11-23T03:48:45.413Z,54.10
2018-11-23T03:49:45.387Z,55.10
2018-11-23T03:50:45.373Z,58.50
2018-11-23T03:51:45.349Z,61.00
2018-11-23T03:52:45.366Z,57.30
2018-11-23T03:53:45.354Z,54.30
2018-11-23T03:54:45.332Z,60.00
2018-11-23T03:55:46.099Z,59.00
2018-11-23T03:56:45.299Z,57.50
2018-11-23T03:57:45.298Z,60.50
2018-11-23T03:58:45.307Z,58.20
2018-11-23T03:59:45.293Z,61.10
2018-11-23T04:00:45.265Z,64.20
2018-11-23T04:01:45.251Z,58.10
2018-11-23T04:02:45.241Z,58.20
2018-11-23T04:03:45.244Z,60.60
2018-11-23T04:04:45.213Z,62.90
2018-11-23T04:05:45.203Z,64.50
2018-11-23T04:06:45.201Z,63.30
2018-11-23T04:07:45.183Z,62.10
2018-11-23T04:08:45.202Z,61.10
2018-11-23T04:09:45.162Z,63.20
2018-11-23T04:10:45.143Z,61.50
2018-11-23T04:11:45.129Z,60.80
2018-11-23T04:12:45.121Z,61.90
2018-11-23T04:13:45.150Z,58.50
2018-11-23T04:14:45.108Z,64.90
2018-11-23T04:15:45.093Z,63.50
2018-11-23T04:16:45.072Z,61.00
2018-11-23T04:17:45.061Z,61.80
2018-11-23T04:18:45.074Z,60.20
2018-11-23T04:19:45.037Z,59.10
2018-11-23T04:20:45.027Z,60.60
2018-11-23T04:21:45.012Z,59.90
2018-11-23T04:22:45.015Z,60.40
2018-11-23T04:23:45.003Z,63.40
2018-11-23T04:24:44.985Z,57.00
2018-11-23T04:25:44.964Z,57.30
2018-11-23T04:26:44.958Z,59.70
2018-11-23T04:27:44.947Z,59.50
2018-11-23T04:28:44.941Z,60.40
2018-11-23T04:29:44.950Z,58.20
2018-11-23T04:30:44.917Z,62.30
2018-11-23T04:31:44.899Z,57.80
2018-11-23T04:32:44.896Z,64.80
2018-11-23T04:33:44.880Z,62.40
2018-11-23T04:34:44.890Z,62.40
2018-11-23T04:35:44.860Z,64.50
2018-11-23T04:36:44.850Z,65.70
2018-11-23T04:37:44.847Z,66.50
2018-11-23T04:38:44.828Z,68.90
2018-11-23T04:39:44.835Z,66.90
2018-11-23T04:40:44.795Z,69.50
2018-11-23T04:41:46.482Z,67.00
2018-11-23T04:42:44.782Z,67.90
2018-11-23T04:43:44.760Z,67.00
2018-11-23T04:44:44.768Z,72.30
2018-11-23T04:45:44.745Z,71.30
2018-11-23T04:46:44.732Z,71.00
2018-11-23T04:47:44.719Z,71.60
2018-11-23T04:48:44.712Z,67.20
2018-11-23T04:49:44.719Z,70.60
2018-11-23T04:50:44.685Z,67.20
2018-11-23T04:51:44.681Z,66.20
2018-11-23T04:52:44.739Z,63.70
2018-11-23T04:53:44.652Z,61.90
2018-11-23T04:54:44.651Z,66.50
2018-11-23T04:55:44.625Z,62.50
2018-11-23T04:56:44.619Z,71.70
2018-11-23T04:57:44.604Z,70.70
2018-11-23T04:58:44.591Z,72.20
2018-11-23T04:59:44.602Z,72.40
2018-11-23T05:00:44.579Z,74.90
2018-11-23T05:01:44.575Z,67.10
2018-11-23T05:02:44.562Z,71.60
2018-11-23T05:03:44.539Z,66.90
2018-11-23T05:04:44.538Z,71.60
2018-11-23T05:05:44.524Z,65.60
2018-11-23T05:07:53.693Z,59.40
2018-11-23T05:08:54.685Z,64.50
2018-11-23T05:09:54.691Z,68.10
2018-11-23T05:10:54.666Z,70.10
2018-11-23T05:11:54.647Z,69.10
2018-11-23T05:12:54.649Z,69.50
2018-11-23T05:13:54.635Z,71.00
2018-11-23T05:14:54.647Z,73.90
2018-11-23T05:15:54.620Z,73.60
2018-11-23T05:16:54.598Z,71.80
2018-11-23T05:17:54.588Z,78.20
2018-11-23T05:18:54.573Z,78.30
2018-11-23T05:19:54.586Z,70.30
2018-11-23T05:20:54.570Z,64.80
2018-11-23T05:21:54.548Z,64.30
2018-11-23T05:22:54.531Z,63.30
2018-11-23T05:23:54.528Z,75.10
2018-11-23T05:24:54.533Z,78.00
2018-11-23T05:25:54.500Z,73.10
2018-11-23T05:26:54.503Z,72.90
2018-11-23T05:27:54.488Z,76.10
2018-11-23T05:28:54.468Z,68.90
2018-11-23T05:29:54.486Z,64.60
2018-11-23T05:30:54.448Z,66.30
2018-11-23T05:31:54.433Z,72.80
2018-11-23T05:32:54.425Z,62.30
2018-11-23T05:33:54.428Z,73.90
2018-11-23T05:34:54.440Z,74.60
2018-11-23T05:35:54.411Z,76.00
2018-11-23T05:36:54.383Z,80.60
2018-11-23T05:37:54.380Z,66.50
2018-11-23T05:38:54.364Z,66.00
2018-11-23T05:39:54.372Z,72.00
2018-11-23T05:40:54.347Z,73.90
2018-11-23T05:41:54.341Z,73.50
2018-11-23T05:42:54.412Z,72.80
2018-11-23T05:43:54.315Z,66.80
2018-11-23T05:44:54.316Z,70.70
2018-11-23T05:45:54.297Z,87.70
2018-11-23T05:46:54.273Z,80.90
2018-11-23T05:47:54.294Z,86.80
2018-11-23T05:48:54.261Z,89.10
2018-11-23T05:49:54.271Z,84.40
2018-11-23T05:50:54.243Z,99.20
2018-11-23T05:51:54.215Z,88.80
2018-11-23T05:52:54.215Z,91.40
2018-11-23T05:53:54.204Z,95.70
2018-11-23T05:54:54.205Z,93.80
2018-11-23T05:55:54.181Z,84.20
2018-11-23T05:56:54.172Z,87.50
2018-11-23T05:57:54.154Z,89.10
2018-11-23T05:58:54.170Z,86.90
2018-11-23T05:59:54.163Z,84.10
2018-11-23T06:00:54.128Z,85.80
2018-11-23T06:01:54.115Z,86.30
2018-11-23T06:02:54.109Z,87.00
2018-11-23T06:03:54.093Z,80.50
2018-11-23T06:04:54.110Z,83.50
2018-11-23T06:05:54.452Z,89.30
2018-11-23T06:06:54.059Z,79.70
2018-11-23T06:07:54.044Z,85.90
2018-11-23T06:08:54.038Z,80.90
2018-11-23T06:09:54.019Z,80.00
2018-11-23T06:10:54.032Z,79.90
2018-11-23T06:11:54.001Z,77.20
2018-11-23T06:12:54.003Z,85.30
2018-11-23T06:13:53.979Z,89.90
2018-11-23T06:14:53.973Z,78.70
2018-11-23T06:15:53.990Z,86.60
2018-11-23T06:16:53.949Z,79.50
2018-11-23T06:17:53.954Z,96.30
2018-11-23T06:18:53.927Z,90.30
2018-11-23T06:19:53.923Z,80.10
2018-11-23T06:20:53.932Z,80.20
2018-11-23T06:21:53.903Z,79.60
2018-11-23T06:22:53.875Z,85.50
2018-11-23T06:23:53.875Z,84.50
2018-11-23T06:24:53.852Z,82.90
2018-11-23T06:25:53.864Z,75.60
2018-11-23T06:26:53.847Z,79.70
2018-11-23T06:27:53.837Z,81.90
2018-11-23T06:28:53.820Z,76.40
2018-11-23T06:29:53.798Z,70.40
2018-11-23T06:30:53.809Z,75.30
2018-11-23T06:31:53.782Z,73.50
2018-11-23T06:32:53.763Z,74.20
2018-11-23T06:33:53.762Z,75.60
2018-11-23T06:34:53.752Z,70.80
2018-11-23T06:35:53.758Z,77.30
2018-11-23T06:36:53.727Z,72.50
2018-11-23T06:37:53.716Z,78.30
2018-11-23T06:38:53.701Z,73.50
2018-11-23T06:39:53.696Z,72.50
2018-11-23T06:40:53.719Z,80.80
2018-11-23T06:41:53.680Z,76.00
2018-11-23T06:42:53.665Z,72.20
2018-11-23T06:43:53.650Z,77.60
2018-11-23T06:44:53.637Z,69.70
2018-11-23T06:45:53.641Z,74.70
2018-11-23T06:46:53.641Z,75.70
2018-11-23T06:47:53.601Z,73.00
2018-11-23T06:48:53.599Z,73.90
2018-11-23T06:49:53.580Z,75.90
2018-11-23T06:50:53.607Z,72.10
2018-11-23T06:51:53.566Z,75.20
2018-11-23T06:52:53.664Z,72.10
2018-11-23T06:53:53.598Z,68.50
2018-11-23T06:54:53.527Z,71.50
2018-11-23T06:55:53.543Z,69.70
2018-11-23T06:56:53.517Z,71.60
2018-11-23T06:57:53.487Z,69.40
2018-11-23T06:58:53.502Z,71.30
2018-11-23T06:59:53.719Z,71.70
2018-11-23T07:00:53.481Z,70.60
2018-11-23T07:01:53.458Z,70.80
2018-11-23T07:02:59.058Z,71.50
2018-11-23T07:03:53.471Z,71.20
2018-11-23T07:04:53.510Z,74.00
2018-11-23T07:05:53.426Z,71.50
2018-11-23T07:06:53.400Z,72.50
2018-11-23T07:09:02.585Z,62.50
2018-11-23T07:10:03.560Z,73.60
2018-11-23T07:11:03.572Z,69.10
2018-11-23T07:12:03.535Z,73.60
2018-11-23T07:13:03.608Z,72.50
2018-11-23T07:14:04.077Z,71.40
2018-11-23T07:15:03.516Z,74.00
2018-11-23T07:16:03.519Z,75.60
2018-11-23T07:17:03.527Z,76.30
2018-11-23T07:18:03.480Z,72.00
2018-11-23T07:19:03.463Z,74.40
2018-11-23T07:20:03.458Z,78.20
2018-11-23T07:21:03.476Z,71.90
2018-11-23T07:22:03.435Z,73.10
2018-11-23T07:23:03.421Z,71.00
2018-11-23T07:24:03.419Z,74.10
2018-11-23T07:25:03.395Z,76.60
2018-11-23T07:26:03.412Z,80.70
2018-11-23T07:27:03.377Z,74.60
2018-11-23T07:28:03.364Z,75.00
2018-11-23T07:29:03.348Z,77.40
2018-11-23T07:30:03.567Z,74.90
2018-11-23T07:31:03.371Z,77.00
2018-11-23T07:32:03.345Z,77.20
2018-11-23T07:33:03.303Z,77.00
2018-11-23T07:34:03.294Z,80.10
2018-11-23T07:35:03.289Z,77.40
2018-11-23T07:36:03.308Z,78.60
2018-11-23T07:37:03.274Z,76.70
2018-11-23T07:38:03.241Z,74.90
2018-11-23T07:39:03.228Z,78.10
2018-11-23T07:40:03.238Z,77.00
2018-11-23T07:41:03.239Z,74.90
2018-11-23T07:42:03.199Z,76.30
2018-11-23T07:43:03.198Z,74.40
2018-11-23T07:44:03.177Z,76.70
2018-11-23T07:45:03.176Z,75.10
2018-11-23T07:46:03.207Z,73.50
2018-11-23T07:47:03.186Z,75.30
2018-11-23T07:48:03.145Z,70.20
2018-11-23T07:49:03.130Z,70.70
2018-11-23T07:50:03.113Z,74.90
2018-11-23T07:51:03.144Z,67.70
2018-11-23T07:52:03.089Z,68.90
2018-11-23T07:53:03.100Z,66.90
2018-11-23T07:54:03.056Z,66.50
2018-11-23T07:55:03.082Z,65.60
2018-11-23T07:56:03.905Z,65.10
2018-11-23T07:57:03.034Z,70.30
2018-11-23T07:58:03.015Z,66.20
2018-11-23T07:59:03.008Z,62.10
2018-11-23T08:00:03.112Z,66.30
2018-11-23T08:01:02.979Z,61.50
2018-11-23T08:02:03.132Z,60.00
2018-11-23T08:03:02.962Z,62.60
2018-11-23T08:04:02.965Z,64.00
2018-11-23T08:05:02.937Z,63.30
2018-11-23T08:06:02.956Z,61.80
2018-11-23T08:07:02.957Z,63.40
2018-11-23T08:08:02.915Z,63.80
2018-11-23T08:09:02.909Z,61.20
2018-11-23T08:10:02.880Z,59.10
2018-11-23T08:11:02.923Z,61.10
2018-11-23T08:12:02.888Z,58.40
2018-11-23T08:13:02.869Z,58.50
2018-11-23T08:14:02.846Z,55.70
2018-11-23T08:15:02.825Z,55.20
2018-11-23T08:16:02.825Z,56.10
2018-11-23T08:17:02.844Z,58.30
2018-11-23T08:18:02.803Z,54.60
2018-11-23T08:19:02.856Z,51.00
2018-11-23T08:20:02.793Z,52.60
2018-11-23T08:21:02.773Z,52.20
2018-11-23T08:22:02.799Z,54.00
2018-11-23T08:23:02.745Z,54.20
2018-11-23T08:24:02.730Z,51.60
2018-11-23T08:25:02.780Z,49.90
2018-11-23T08:26:02.719Z,51.80
2018-11-23T08:27:02.721Z,53.50
2018-11-23T08:28:02.699Z,50.70
2018-11-23T08:29:02.683Z,50.80
2018-11-23T08:30:02.922Z,48.80
2018-11-23T08:31:03.416Z,51.20
2018-11-23T08:32:02.714Z,45.60
2018-11-23T08:33:03.332Z,51.40
2018-11-23T08:34:02.675Z,52.10
2018-11-23T08:35:02.640Z,53.00
2018-11-23T08:36:02.788Z,48.40
2018-11-23T08:37:02.632Z,51.90
2018-11-23T08:38:02.604Z,54.30
2018-11-23T08:39:04.863Z,47.20
2018-11-23T08:40:02.611Z,48.90
2018-11-23T08:41:02.811Z,48.10
2018-11-23T08:42:02.569Z,49.70
2018-11-23T08:43:02.530Z,48.30
2018-11-23T08:44:02.528Z,47.40
2018-11-23T08:45:02.510Z,46.70
2018-11-23T08:46:02.589Z,49.60
2018-11-23T08:47:03.351Z,47.80
2018-11-23T08:48:02.469Z,47.20
2018-11-23T08:49:02.467Z,50.00
2018-11-23T08:50:02.475Z,45.60
2018-11-23T08:51:02.434Z,47.80
2018-11-23T08:52:02.424Z,44.40
2018-11-23T08:53:02.441Z,47.00
2018-11-23T08:54:02.421Z,43.20
2018-11-23T08:55:02.400Z,45.00
2018-11-23T08:56:02.541Z,44.30
2018-11-23T08:57:02.451Z,44.10
2018-11-23T08:58:02.393Z,44.90
2018-11-23T08:59:02.355Z,43.00
2018-11-23T09:00:04.240Z,42.60
2018-11-23T09:01:03.341Z,45.20
2018-11-23T09:02:02.553Z,43.50
2018-11-23T09:03:02.337Z,43.60
2018-11-23T09:04:02.406Z,44.00
2018-11-23T09:05:02.297Z,42.20
2018-11-23T09:06:02.306Z,41.80
2018-11-23T09:07:02.377Z,43.60
2018-11-23T09:08:02.277Z,41.80
2018-11-23T09:10:12.209Z,37.60
2018-11-23T09:11:12.422Z,41.10
2018-11-23T09:12:12.441Z,41.40
2018-11-23T09:13:12.446Z,42.60
2018-11-23T09:14:12.404Z,42.30
2018-11-23T09:15:12.391Z,41.50
2018-11-23T09:16:12.379Z,40.00
2018-11-23T09:17:12.377Z,40.00
2018-11-23T09:18:12.370Z,41.40
2018-11-23T09:19:12.386Z,40.90
2018-11-23T09:20:12.614Z,42.50
2018-11-23T09:21:12.325Z,41.00
2018-11-23T09:22:12.464Z,40.10
2018-11-23T09:23:12.322Z,42.70
2018-11-23T09:24:12.372Z,41.40
2018-11-23T09:25:12.287Z,40.60
2018-11-23T09:26:12.367Z,38.90
2018-11-23T09:27:12.263Z,39.10
2018-11-23T09:28:12.338Z,42.50
2018-11-23T09:29:12.238Z,37.70
2018-11-23T09:30:12.231Z,41.30
2018-11-23T09:31:12.227Z,40.10
2018-11-23T09:32:12.260Z,36.30
2018-11-23T09:33:12.220Z,40.60
2018-11-23T09:34:12.193Z,39.50
2018-11-23T09:35:12.192Z,38.80
2018-11-23T09:36:12.398Z,37.10
2018-11-23T09:37:12.160Z,39.10
2018-11-23T09:38:12.176Z,37.70
2018-11-23T09:39:12.126Z,37.90
2018-11-23T09:40:12.585Z,37.70
2018-11-23T09:41:12.160Z,36.70
2018-11-23T09:42:12.207Z,38.60
2018-11-23T09:43:12.231Z,37.90
2018-11-23T09:44:12.140Z,36.40
2018-11-23T09:45:12.070Z,34.40
2018-11-23T09:46:12.053Z,36.10
2018-11-23T09:47:12.037Z,37.00
2018-11-23T09:48:12.204Z,35.50
2018-11-23T09:49:12.009Z,38.10
2018-11-23T09:50:12.000Z,33.80
2018-11-23T09:51:12.039Z,31.50
2018-11-23T09:52:12.007Z,34.40
2018-11-23T09:53:12.148Z,35.50
2018-11-23T09:54:11.980Z,35.30
2018-11-23T09:55:11.945Z,34.40
2018-11-23T09:56:11.964Z,33.40
2018-11-23T09:57:11.940Z,33.60
2018-11-23T09:58:11.928Z,33.80
2018-11-23T09:59:11.965Z,34.90
2018-11-23T10:00:11.892Z,33.60
2018-11-23T10:01:11.889Z,36.10
2018-11-23T10:02:11.930Z,33.60
2018-11-23T10:03:11.899Z,34.10
2018-11-23T10:04:11.885Z,34.20
2018-11-23T10:05:11.843Z,33.00
2018-11-23T10:06:11.834Z,33.70
2018-11-23T10:07:11.828Z,35.10
2018-11-23T10:08:11.828Z,32.80
2018-11-23T10:09:11.834Z,33.40
2018-11-23T10:10:11.792Z,33.60
2018-11-23T10:11:11.769Z,33.80
2018-11-23T10:12:11.781Z,32.60
2018-11-23T10:13:11.758Z,32.70
2018-11-23T10:14:11.760Z,32.60
2018-11-23T10:15:11.737Z,34.00
2018-11-23T10:16:11.731Z,32.50
2018-11-23T10:17:11.725Z,34.00
2018-11-23T10:18:11.708Z,33.30
2018-11-23T10:19:11.716Z,32.00
2018-11-23T10:20:11.701Z,32.70
2018-11-23T10:21:11.683Z,32.80
2018-11-23T10:22:12.168Z,32.30
2018-11-23T10:23:11.874Z,33.60
2018-11-23T10:24:11.685Z,30.00
2018-11-23T10:25:11.673Z,32.00
2018-11-23T10:26:11.613Z,31.60
2018-11-23T10:27:11.629Z,31.20
2018-11-23T10:28:11.599Z,34.00
2018-11-23T10:29:11.699Z,31.60
2018-11-23T10:30:11.574Z,32.30
2018-11-23T10:31:11.555Z,32.80
2018-11-23T10:32:11.548Z,32.00
2018-11-23T10:33:11.557Z,32.70
2018-11-23T10:34:11.558Z,32.40
2018-11-23T10:35:11.527Z,32.70
2018-11-23T10:36:11.521Z,30.90
2018-11-23T10:37:11.534Z,33.10
2018-11-23T10:38:11.471Z,31.10
2018-11-23T10:39:11.502Z,31.70
2018-11-23T10:40:11.453Z,32.30
2018-11-23T10:41:11.443Z,30.40
2018-11-23T10:42:11.427Z,31.60
2018-11-23T10:43:11.431Z,31.00
2018-11-23T10:44:11.594Z,31.50
2018-11-23T10:45:13.329Z,29.90
2018-11-23T10:46:11.994Z,32.80
2018-11-23T10:47:11.441Z,30.90
2018-11-23T10:48:11.627Z,31.70
2018-11-23T10:49:11.425Z,31.90
2018-11-23T10:50:11.493Z,30.30
2018-11-23T10:51:11.352Z,30.90
2018-11-23T10:52:11.341Z,31.80
2018-11-23T10:53:11.382Z,31.80
2018-11-23T10:54:11.310Z,33.00
2018-11-23T10:55:11.373Z,31.00
2018-11-23T10:56:12.240Z,31.10
2018-11-23T10:57:11.296Z,30.20
2018-11-23T10:58:11.308Z,32.40
2018-11-23T10:59:11.268Z,30.20
2018-11-23T11:00:11.291Z,33.10
2018-11-23T11:01:11.282Z,31.20
2018-11-23T11:02:11.251Z,30.90
2018-11-23T11:03:11.229Z,30.80
2018-11-23T11:04:11.197Z,30.30
2018-11-23T11:05:11.214Z,31.30
2018-11-23T11:06:11.205Z,30.80
2018-11-23T11:07:11.192Z,29.20
2018-11-23T11:08:11.141Z,29.00
2018-11-23T11:09:11.247Z,28.80
2018-11-23T11:11:20.500Z,26.60
2018-11-23T11:12:21.356Z,27.40
2018-11-23T11:13:21.329Z,28.90
2018-11-23T11:14:21.333Z,28.10
2018-11-23T11:15:21.359Z,28.20
2018-11-23T11:16:21.347Z,29.00
2018-11-23T11:17:21.292Z,28.20
2018-11-23T11:18:21.328Z,29.10
2018-11-23T11:19:21.267Z,27.90
2018-11-23T11:20:21.267Z,28.30
2018-11-23T11:21:21.270Z,30.20
2018-11-23T11:22:21.233Z,28.40
2018-11-23T11:23:21.232Z,27.70
2018-11-23T11:24:21.226Z,28.80
2018-11-23T11:25:21.209Z,26.00
2018-11-23T11:26:21.215Z,29.00
2018-11-23T11:27:21.307Z,28.50
2018-11-23T11:28:21.180Z,28.90
2018-11-23T11:29:21.161Z,26.80
2018-11-23T11:30:21.139Z,26.90
2018-11-23T11:31:21.177Z,27.60
2018-11-23T11:32:21.134Z,31.10
2018-11-23T11:33:21.120Z,28.70
2018-11-23T11:34:21.105Z,28.80
2018-11-23T11:35:21.101Z,27.70
2018-11-23T11:36:21.167Z,27.30
2018-11-23T11:37:21.353Z,29.10
2018-11-23T11:38:30.051Z,28.70
2018-11-23T11:39:22.049Z,27.60
2018-11-23T11:40:21.396Z,25.70
2018-11-23T11:41:21.096Z,30.20
2018-11-23T11:42:23.606Z,28.50
2018-11-23T11:43:22.066Z,28.20
2018-11-23T11:44:21.541Z,29.90
2018-11-23T11:45:20.981Z,28.00
2018-11-23T11:46:20.977Z,27.00
2018-11-23T11:47:20.989Z,29.00
2018-11-23T11:48:20.967Z,28.70
2018-11-23T11:49:21.011Z,29.90
2018-11-23T11:50:20.950Z,28.50
2018-11-23T11:51:20.911Z,26.60
2018-11-23T11:52:20.941Z,28.40
2018-11-23T11:53:20.897Z,27.40
2018-11-23T11:54:20.963Z,26.50
2018-11-23T11:55:20.908Z,27.60
2018-11-23T11:56:20.868Z,25.40
2018-11-23T11:57:20.870Z,25.80
2018-11-23T11:58:20.845Z,27.30
2018-11-23T11:59:20.828Z,25.00
2018-11-23T12:00:20.880Z,26.00
2018-11-23T12:01:21.163Z,24.70
2018-11-23T12:02:20.864Z,25.10
2018-11-23T12:03:20.780Z,26.20
2018-11-23T12:04:20.768Z,25.10
2018-11-23T12:05:20.770Z,28.90
2018-11-23T12:06:20.800Z,26.60
2018-11-23T12:07:20.821Z,28.20
2018-11-23T12:08:20.740Z,33.00
2018-11-23T12:09:20.736Z,28.90
2018-11-23T12:10:20.707Z,28.50
2018-11-23T12:11:20.700Z,29.70
2018-11-23T12:12:20.801Z,28.60
2018-11-23T12:13:20.691Z,30.00
2018-11-23T12:14:20.689Z,28.50
2018-11-23T12:15:20.711Z,29.20
2018-11-23T12:16:20.756Z,28.50
2018-11-23T12:17:20.678Z,28.50
2018-11-23T12:18:20.630Z,29.50
2018-11-23T12:19:20.600Z,28.20
2018-11-23T12:20:20.597Z,29.00
2018-11-23T12:21:20.589Z,26.30
2018-11-23T12:22:20.588Z,27.40
2018-11-23T12:23:20.583Z,25.40
2018-11-23T12:24:20.543Z,24.90
2018-11-23T12:25:20.548Z,26.30
2018-11-23T12:26:20.533Z,29.00
2018-11-23T12:27:20.540Z,30.00
2018-11-23T12:28:20.514Z,29.80
2018-11-23T12:29:20.488Z,30.80
2018-11-23T12:30:20.486Z,30.60
2018-11-23T12:31:20.481Z,29.20
2018-11-23T12:32:20.483Z,30.40
2018-11-23T12:33:20.459Z,29.80
2018-11-23T12:34:20.440Z,28.70
2018-11-23T12:35:20.431Z,30.00
2018-11-23T12:36:20.424Z,29.00
2018-11-23T12:37:20.420Z,28.90
2018-11-23T12:38:20.410Z,27.20
2018-11-23T12:39:20.384Z,32.40
2018-11-23T12:40:20.387Z,27.60
2018-11-23T12:41:20.360Z,28.30
2018-11-23T12:42:20.376Z,26.80
2018-11-23T12:43:20.341Z,28.50
2018-11-23T12:44:20.331Z,25.10
2018-11-23T12:45:20.325Z,26.80
2018-11-23T12:46:20.315Z,26.50
2018-11-23T12:47:20.328Z,26.90
2018-11-23T12:48:20.287Z,28.00
2018-11-23T12:49:20.275Z,28.10
2018-11-23T12:50:20.259Z,29.40
2018-11-23T12:51:20.272Z,26.70
2018-11-23T12:52:20.257Z,25.60
2018-11-23T12:53:20.228Z,26.10
2018-11-23T12:54:20.227Z,27.00
2018-11-23T12:55:20.221Z,28.20
2018-11-23T12:56:20.203Z,27.90
2018-11-23T12:57:20.235Z,27.30
2018-11-23T12:58:20.187Z,27.60
2018-11-23T12:59:20.156Z,27.60